sensor_id;sensor_type;location;lat;lon;timestamp;P1;durP1;ratioP1;P2;durP2;ratioP2
24557;SDS011;12726;49.148;8.582;2024-03-02T00:02:24;20.15;;;11.50;;
24557;SDS011;12726;49.148;8.582;2024-03-02T00:05:10;19.17;;;11.95;;
24557;SDS011;12726;49.148;8.582;2024-03-02T00:07:57;18.60;;;11.27;;
24557;SDS011;12726;49.148;8.582;2024-03-02T00:10:43;22.98;;;12.95;;
24557;SDS011;12726;49.148;8.582;2024-03-02T00:13:28;20.17;;;12.68;;
24557;SDS011;12726;49.148;8.582;2024-03-02T00:16:15;18.65;;;9.52;;
24557;SDS011;12726;49.148;8.582;2024-03-02T00:19:03;18.27;;;9.98;;
24557;SDS011;12726;49.148;8.582;2024-03-02T00:21:52;17.25;;;9.40;;
24557;SDS011;12726;49.148;8.582;2024-03-02T00:24:37;16.48;;;9.65;;
24557;SDS011;12726;49.148;8.582;2024-03-02T00:27:24;10.18;;;5.95;;
24557;SDS011;12726;49.148;8.582;2024-03-02T00:30:12;13.60;;;8.43;;
24557;SDS011;12726;49.148;8.582;2024-03-02T00:33:26;9.00;;;5.78;;
24557;SDS011;12726;49.148;8.582;2024-03-02T00:36:14;11.27;;;6.85;;
24557;SDS011;12726;49.148;8.582;2024-03-02T00:39:01;9.32;;;6.28;;
24557;SDS011;12726;49.148;8.582;2024-03-02T00:41:46;9.68;;;5.40;;
24557;SDS011;12726;49.148;8.582;2024-03-02T00:44:32;12.20;;;7.15;;
24557;SDS011;12726;49.148;8.582;2024-03-02T00:47:19;10.63;;;7.30;;
24557;SDS011;12726;49.148;8.582;2024-03-02T00:50:05;13.20;;;7.82;;
24557;SDS011;12726;49.148;8.582;2024-03-02T00:52:53;11.73;;;7.05;;
24557;SDS011;12726;49.148;8.582;2024-03-02T00:55:39;11.75;;;7.05;;
24557;SDS011;12726;49.148;8.582;2024-03-02T00:58:27;15.02;;;6.65;;
24557;SDS011;12726;49.148;8.582;2024-03-02T01:01:13;10.15;;;6.22;;
24557;SDS011;12726;49.148;8.582;2024-03-02T01:03:59;10.38;;;6.32;;
24557;SDS011;12726;49.148;8.582;2024-03-02T01:06:45;9.63;;;5.85;;
24557;SDS011;12726;49.148;8.582;2024-03-02T01:09:32;14.77;;;7.05;;
24557;SDS011;12726;49.148;8.582;2024-03-02T01:12:17;14.40;;;8.55;;
24557;SDS011;12726;49.148;8.582;2024-03-02T01:15:03;14.30;;;7.70;;
24557;SDS011;12726;49.148;8.582;2024-03-02T01:17:52;12.35;;;6.57;;
24557;SDS011;12726;49.148;8.582;2024-03-02T01:20:37;14.10;;;7.72;;
24557;SDS011;12726;49.148;8.582;2024-03-02T01:23:23;14.48;;;8.50;;
24557;SDS011;12726;49.148;8.582;2024-03-02T01:26:09;14.65;;;8.30;;
24557;SDS011;12726;49.148;8.582;2024-03-02T01:28:55;14.70;;;8.63;;
24557;SDS011;12726;49.148;8.582;2024-03-02T01:31:40;14.32;;;8.60;;
24557;SDS011;12726;49.148;8.582;2024-03-02T01:34:26;11.95;;;7.63;;
24557;SDS011;12726;49.148;8.582;2024-03-02T01:37:11;17.08;;;8.40;;
24557;SDS011;12726;49.148;8.582;2024-03-02T01:39:56;15.13;;;8.05;;
24557;SDS011;12726;49.148;8.582;2024-03-02T01:42:43;11.70;;;7.45;;
24557;SDS011;12726;49.148;8.582;2024-03-02T01:45:28;13.90;;;7.95;;
24557;SDS011;12726;49.148;8.582;2024-03-02T01:48:13;11.77;;;7.57;;
24557;SDS011;12726;49.148;8.582;2024-03-02T01:50:59;15.40;;;7.78;;
24557;SDS011;12726;49.148;8.582;2024-03-02T01:53:44;13.32;;;8.20;;
24557;SDS011;12726;49.148;8.582;2024-03-02T01:56:30;12.95;;;8.32;;
24557;SDS011;12726;49.148;8.582;2024-03-02T01:59:17;13.98;;;8.15;;
24557;SDS011;12726;49.148;8.582;2024-03-02T02:02:03;12.45;;;8.23;;
24557;SDS011;12726;49.148;8.582;2024-03-02T02:04:48;17.00;;;8.93;;
24557;SDS011;12726;49.148;8.582;2024-03-02T02:07:34;13.82;;;8.18;;
24557;SDS011;12726;49.148;8.582;2024-03-02T02:10:20;12.25;;;8.20;;
24557;SDS011;12726;49.148;8.582;2024-03-02T02:13:05;12.65;;;7.28;;
24557;SDS011;12726;49.148;8.582;2024-03-02T02:15:53;11.65;;;7.82;;
24557;SDS011;12726;49.148;8.582;2024-03-02T02:18:39;15.15;;;8.40;;
24557;SDS011;12726;49.148;8.582;2024-03-02T02:21:25;12.77;;;7.38;;
24557;SDS011;12726;49.148;8.582;2024-03-02T02:24:11;11.93;;;6.70;;
24557;SDS011;12726;49.148;8.582;2024-03-02T02:26:57;13.80;;;8.48;;
24557;SDS011;12726;49.148;8.582;2024-03-02T02:29:42;15.20;;;8.57;;
24557;SDS011;12726;49.148;8.582;2024-03-02T02:32:28;13.13;;;8.38;;
24557;SDS011;12726;49.148;8.582;2024-03-02T02:35:13;19.88;;;8.60;;
24557;SDS011;12726;49.148;8.582;2024-03-02T02:38:00;15.45;;;9.38;;
24557;SDS011;12726;49.148;8.582;2024-03-02T02:40:46;14.75;;;8.48;;
24557;SDS011;12726;49.148;8.582;2024-03-02T02:43:32;13.70;;;8.52;;
24557;SDS011;12726;49.148;8.582;2024-03-02T02:46:17;14.02;;;7.85;;
24557;SDS011;12726;49.148;8.582;2024-03-02T02:49:03;11.30;;;7.65;;
24557;SDS011;12726;49.148;8.582;2024-03-02T02:51:48;10.15;;;7.10;;
24557;SDS011;12726;49.148;8.582;2024-03-02T02:54:36;9.82;;;6.68;;
24557;SDS011;12726;49.148;8.582;2024-03-02T02:57:22;12.02;;;6.28;;
24557;SDS011;12726;49.148;8.582;2024-03-02T03:00:08;10.95;;;6.80;;
24557;SDS011;12726;49.148;8.582;2024-03-02T03:02:58;12.18;;;7.00;;
24557;SDS011;12726;49.148;8.582;2024-03-02T03:05:43;12.95;;;6.70;;
24557;SDS011;12726;49.148;8.582;2024-03-02T03:08:29;8.32;;;5.30;;
24557;SDS011;12726;49.148;8.582;2024-03-02T03:11:16;11.68;;;6.13;;
24557;SDS011;12726;49.148;8.582;2024-03-02T03:14:01;11.07;;;6.43;;
24557;SDS011;12726;49.148;8.582;2024-03-02T03:16:46;10.73;;;6.53;;
24557;SDS011;12726;49.148;8.582;2024-03-02T03:19:32;10.80;;;5.65;;
24557;SDS011;12726;49.148;8.582;2024-03-02T03:22:17;8.95;;;5.90;;
24557;SDS011;12726;49.148;8.582;2024-03-02T03:25:03;9.77;;;5.80;;
24557;SDS011;12726;49.148;8.582;2024-03-02T03:27:50;12.50;;;7.25;;
24557;SDS011;12726;49.148;8.582;2024-03-02T03:30:36;11.02;;;6.35;;
24557;SDS011;12726;49.148;8.582;2024-03-02T03:33:21;8.50;;;5.95;;
24557;SDS011;12726;49.148;8.582;2024-03-02T03:36:06;11.95;;;6.55;;
24557;SDS011;12726;49.148;8.582;2024-03-02T03:38:52;9.35;;;5.78;;
24557;SDS011;12726;49.148;8.582;2024-03-02T03:41:37;9.93;;;6.32;;
24557;SDS011;12726;49.148;8.582;2024-03-02T03:44:24;12.80;;;6.07;;
24557;SDS011;12726;49.148;8.582;2024-03-02T03:47:09;10.52;;;6.50;;
24557;SDS011;12726;49.148;8.582;2024-03-02T03:49:54;11.07;;;6.15;;
24557;SDS011;12726;49.148;8.582;2024-03-02T03:52:39;10.00;;;6.40;;
24557;SDS011;12726;49.148;8.582;2024-03-02T03:55:25;10.15;;;6.15;;
24557;SDS011;12726;49.148;8.582;2024-03-02T03:58:10;12.05;;;6.45;;
24557;SDS011;12726;49.148;8.582;2024-03-02T04:00:57;8.52;;;5.28;;
24557;SDS011;12726;49.148;8.582;2024-03-02T04:03:42;13.05;;;6.88;;
24557;SDS011;12726;49.148;8.582;2024-03-02T04:06:28;9.50;;;6.55;;
24557;SDS011;12726;49.148;8.582;2024-03-02T04:09:13;11.30;;;6.13;;
24557;SDS011;12726;49.148;8.582;2024-03-02T04:11:58;11.70;;;6.88;;
24557;SDS011;12726;49.148;8.582;2024-03-02T04:14:44;9.25;;;5.97;;
24557;SDS011;12726;49.148;8.582;2024-03-02T04:17:32;10.60;;;5.82;;
24557;SDS011;12726;49.148;8.582;2024-03-02T04:20:19;9.60;;;6.13;;
24557;SDS011;12726;49.148;8.582;2024-03-02T04:23:04;10.65;;;6.18;;
24557;SDS011;12726;49.148;8.582;2024-03-02T04:25:49;9.70;;;6.50;;
24557;SDS011;12726;49.148;8.582;2024-03-02T04:28:34;10.15;;;6.93;;
24557;SDS011;12726;49.148;8.582;2024-03-02T04:31:20;9.20;;;6.00;;
24557;SDS011;12726;49.148;8.582;2024-03-02T04:34:07;12.23;;;7.10;;
24557;SDS011;12726;49.148;8.582;2024-03-02T04:36:52;10.25;;;6.22;;
24557;SDS011;12726;49.148;8.582;2024-03-02T04:39:37;10.95;;;7.15;;
24557;SDS011;12726;49.148;8.582;2024-03-02T04:42:24;9.50;;;5.55;;
24557;SDS011;12726;49.148;8.582;2024-03-02T04:45:09;11.85;;;6.85;;
24557;SDS011;12726;49.148;8.582;2024-03-02T04:47:55;11.18;;;6.97;;
24557;SDS011;12726;49.148;8.582;2024-03-02T04:50:42;10.25;;;6.57;;
24557;SDS011;12726;49.148;8.582;2024-03-02T04:53:27;11.30;;;6.78;;
24557;SDS011;12726;49.148;8.582;2024-03-02T04:56:12;9.95;;;6.30;;
24557;SDS011;12726;49.148;8.582;2024-03-02T04:59:28;12.50;;;6.65;;
24557;SDS011;12726;49.148;8.582;2024-03-02T05:02:13;9.93;;;5.90;;
24557;SDS011;12726;49.148;8.582;2024-03-02T05:04:58;12.20;;;5.85;;
24557;SDS011;12726;49.148;8.582;2024-03-02T05:07:45;10.70;;;6.60;;
24557;SDS011;12726;49.148;8.582;2024-03-02T05:10:30;9.75;;;6.35;;
24557;SDS011;12726;49.148;8.582;2024-03-02T05:13:16;10.40;;;6.70;;
24557;SDS011;12726;49.148;8.582;2024-03-02T05:16:02;12.90;;;6.65;;
24557;SDS011;12726;49.148;8.582;2024-03-02T05:18:48;10.45;;;6.95;;
24557;SDS011;12726;49.148;8.582;2024-03-02T05:21:33;9.40;;;6.18;;
24557;SDS011;12726;49.148;8.582;2024-03-02T05:24:20;12.25;;;7.47;;
24557;SDS011;12726;49.148;8.582;2024-03-02T05:27:05;11.88;;;7.20;;
24557;SDS011;12726;49.148;8.582;2024-03-02T05:29:51;13.32;;;8.00;;
24557;SDS011;12726;49.148;8.582;2024-03-02T05:32:36;11.63;;;7.10;;
24557;SDS011;12726;49.148;8.582;2024-03-02T05:35:22;12.93;;;6.97;;
24557;SDS011;12726;49.148;8.582;2024-03-02T05:38:07;13.57;;;7.50;;
24557;SDS011;12726;49.148;8.582;2024-03-02T05:40:54;11.25;;;7.57;;
24557;SDS011;12726;49.148;8.582;2024-03-02T05:43:40;12.77;;;7.68;;
24557;SDS011;12726;49.148;8.582;2024-03-02T05:46:25;18.55;;;9.40;;
24557;SDS011;12726;49.148;8.582;2024-03-02T05:49:10;14.70;;;8.65;;
24557;SDS011;12726;49.148;8.582;2024-03-02T05:51:55;17.48;;;8.48;;
24557;SDS011;12726;49.148;8.582;2024-03-02T05:54:41;15.05;;;8.38;;
24557;SDS011;12726;49.148;8.582;2024-03-02T05:57:27;14.48;;;8.30;;
24557;SDS011;12726;49.148;8.582;2024-03-02T06:00:28;18.20;;;9.25;;
24557;SDS011;12726;49.148;8.582;2024-03-02T06:03:14;15.13;;;8.05;;
24557;SDS011;12726;49.148;8.582;2024-03-02T06:06:00;13.35;;;8.00;;
24557;SDS011;12726;49.148;8.582;2024-03-02T06:08:45;15.23;;;8.15;;
24557;SDS011;12726;49.148;8.582;2024-03-02T06:11:31;14.95;;;8.95;;
24557;SDS011;12726;49.148;8.582;2024-03-02T06:14:17;17.25;;;9.43;;
24557;SDS011;12726;49.148;8.582;2024-03-02T06:17:03;15.88;;;9.63;;
24557;SDS011;12726;49.148;8.582;2024-03-02T06:19:49;17.90;;;10.77;;
24557;SDS011;12726;49.148;8.582;2024-03-02T06:22:34;16.65;;;10.07;;
24557;SDS011;12726;49.148;8.582;2024-03-02T06:25:20;16.48;;;10.02;;
24557;SDS011;12726;49.148;8.582;2024-03-02T06:28:05;16.58;;;8.93;;
24557;SDS011;12726;49.148;8.582;2024-03-02T06:30:52;15.88;;;9.15;;
24557;SDS011;12726;49.148;8.582;2024-03-02T06:33:37;16.95;;;9.43;;
24557;SDS011;12726;49.148;8.582;2024-03-02T06:36:23;18.40;;;9.32;;
24557;SDS011;12726;49.148;8.582;2024-03-02T06:39:09;16.23;;;9.40;;
24557;SDS011;12726;49.148;8.582;2024-03-02T06:41:56;16.13;;;9.10;;
24557;SDS011;12726;49.148;8.582;2024-03-02T06:44:41;12.98;;;7.68;;
24557;SDS011;12726;49.148;8.582;2024-03-02T06:47:28;15.20;;;8.50;;
24557;SDS011;12726;49.148;8.582;2024-03-02T06:50:14;21.13;;;11.65;;
24557;SDS011;12726;49.148;8.582;2024-03-02T06:53:05;20.63;;;11.20;;
24557;SDS011;12726;49.148;8.582;2024-03-02T06:55:50;20.75;;;11.02;;
24557;SDS011;12726;49.148;8.582;2024-03-02T06:58:35;21.88;;;12.38;;
24557;SDS011;12726;49.148;8.582;2024-03-02T07:01:20;22.85;;;13.02;;
24557;SDS011;12726;49.148;8.582;2024-03-02T07:04:07;23.38;;;12.73;;
24557;SDS011;12726;49.148;8.582;2024-03-02T07:06:52;21.23;;;12.07;;
24557;SDS011;12726;49.148;8.582;2024-03-02T07:09:38;21.75;;;11.38;;
24557;SDS011;12726;49.148;8.582;2024-03-02T07:12:24;21.20;;;11.77;;
24557;SDS011;12726;49.148;8.582;2024-03-02T07:15:09;22.73;;;12.48;;
24557;SDS011;12726;49.148;8.582;2024-03-02T07:18:20;24.55;;;14.50;;
24557;SDS011;12726;49.148;8.582;2024-03-02T07:21:07;27.90;;;15.82;;
24557;SDS011;12726;49.148;8.582;2024-03-02T07:23:52;21.88;;;13.32;;
24557;SDS011;12726;49.148;8.582;2024-03-02T07:26:38;32.05;;;17.27;;
24557;SDS011;12726;49.148;8.582;2024-03-02T07:29:26;46.97;;;22.65;;
24557;SDS011;12726;49.148;8.582;2024-03-02T07:32:11;36.38;;;17.92;;
24557;SDS011;12726;49.148;8.582;2024-03-02T07:34:57;34.72;;;18.08;;
24557;SDS011;12726;49.148;8.582;2024-03-02T07:37:43;23.25;;;15.10;;
24557;SDS011;12726;49.148;8.582;2024-03-02T07:40:29;20.17;;;13.05;;
24557;SDS011;12726;49.148;8.582;2024-03-02T07:43:15;14.70;;;10.20;;
24557;SDS011;12726;49.148;8.582;2024-03-02T07:46:00;16.90;;;9.63;;
24557;SDS011;12726;49.148;8.582;2024-03-02T07:48:46;13.13;;;7.97;;
24557;SDS011;12726;49.148;8.582;2024-03-02T07:51:32;13.70;;;8.20;;
24557;SDS011;12726;49.148;8.582;2024-03-02T07:54:19;13.10;;;8.75;;
24557;SDS011;12726;49.148;8.582;2024-03-02T07:57:04;15.85;;;9.05;;
24557;SDS011;12726;49.148;8.582;2024-03-02T07:59:49;12.63;;;7.63;;
24557;SDS011;12726;49.148;8.582;2024-03-02T08:02:35;13.48;;;8.00;;
24557;SDS011;12726;49.148;8.582;2024-03-02T08:05:20;15.38;;;8.15;;
24557;SDS011;12726;49.148;8.582;2024-03-02T08:08:05;11.93;;;7.93;;
24557;SDS011;12726;49.148;8.582;2024-03-02T08:10:52;11.73;;;8.05;;
24557;SDS011;12726;49.148;8.582;2024-03-02T08:13:37;13.70;;;7.57;;
24557;SDS011;12726;49.148;8.582;2024-03-02T08:16:23;11.02;;;7.35;;
24557;SDS011;12726;49.148;8.582;2024-03-02T08:19:09;11.40;;;7.90;;
24557;SDS011;12726;49.148;8.582;2024-03-02T08:21:54;13.60;;;7.55;;
24557;SDS011;12726;49.148;8.582;2024-03-02T08:24:40;16.25;;;9.00;;
24557;SDS011;12726;49.148;8.582;2024-03-02T08:27:27;13.95;;;8.73;;
24557;SDS011;12726;49.148;8.582;2024-03-02T08:30:12;10.35;;;7.25;;
24557;SDS011;12726;49.148;8.582;2024-03-02T08:32:58;11.05;;;6.70;;
24557;SDS011;12726;49.148;8.582;2024-03-02T08:35:44;11.50;;;7.97;;
24557;SDS011;12726;49.148;8.582;2024-03-02T08:38:29;13.77;;;7.72;;
24557;SDS011;12726;49.148;8.582;2024-03-02T08:41:15;10.07;;;7.18;;
24557;SDS011;12726;49.148;8.582;2024-03-02T08:44:02;10.85;;;7.75;;
24557;SDS011;12726;49.148;8.582;2024-03-02T08:46:47;9.52;;;6.43;;
24557;SDS011;12726;49.148;8.582;2024-03-02T08:49:33;8.43;;;6.32;;
24557;SDS011;12726;49.148;8.582;2024-03-02T08:52:18;9.13;;;7.28;;
24557;SDS011;12726;49.148;8.582;2024-03-02T08:55:03;11.65;;;7.15;;
24557;SDS011;12726;49.148;8.582;2024-03-02T08:57:49;10.88;;;7.43;;
24557;SDS011;12726;49.148;8.582;2024-03-02T09:00:36;8.48;;;6.63;;
24557;SDS011;12726;49.148;8.582;2024-03-02T09:03:22;9.93;;;6.75;;
24557;SDS011;12726;49.148;8.582;2024-03-02T09:06:07;12.25;;;7.07;;
24557;SDS011;12726;49.148;8.582;2024-03-02T09:08:52;8.77;;;7.15;;
24557;SDS011;12726;49.148;8.582;2024-03-02T09:11:38;8.63;;;6.30;;
24557;SDS011;12726;49.148;8.582;2024-03-02T09:14:23;10.00;;;7.00;;
24557;SDS011;12726;49.148;8.582;2024-03-02T09:17:10;9.13;;;6.88;;
24557;SDS011;12726;49.148;8.582;2024-03-02T09:19:58;8.60;;;6.43;;
24557;SDS011;12726;49.148;8.582;2024-03-02T09:22:43;9.13;;;6.65;;
24557;SDS011;12726;49.148;8.582;2024-03-02T09:25:31;8.20;;;6.80;;
24557;SDS011;12726;49.148;8.582;2024-03-02T09:28:16;9.95;;;6.63;;
24557;SDS011;12726;49.148;8.582;2024-03-02T09:31:02;10.00;;;6.18;;
24557;SDS011;12726;49.148;8.582;2024-03-02T09:33:49;11.23;;;6.45;;
24557;SDS011;12726;49.148;8.582;2024-03-02T09:36:35;8.80;;;6.38;;
24557;SDS011;12726;49.148;8.582;2024-03-02T09:39:20;7.68;;;5.63;;
24557;SDS011;12726;49.148;8.582;2024-03-02T09:42:06;8.25;;;6.00;;
24557;SDS011;12726;49.148;8.582;2024-03-02T09:44:51;8.48;;;6.15;;
24557;SDS011;12726;49.148;8.582;2024-03-02T09:47:37;10.05;;;5.80;;
24557;SDS011;12726;49.148;8.582;2024-03-02T09:50:24;7.90;;;5.18;;
24557;SDS011;12726;49.148;8.582;2024-03-02T09:53:09;7.82;;;5.75;;
24557;SDS011;12726;49.148;8.582;2024-03-02T09:55:56;6.97;;;5.10;;
24557;SDS011;12726;49.148;8.582;2024-03-02T09:58:42;6.88;;;4.97;;
24557;SDS011;12726;49.148;8.582;2024-03-02T10:01:27;7.32;;;5.25;;
24557;SDS011;12726;49.148;8.582;2024-03-02T10:04:12;7.15;;;5.35;;
24557;SDS011;12726;49.148;8.582;2024-03-02T10:07:12;6.15;;;5.00;;
24557;SDS011;12726;49.148;8.582;2024-03-02T10:09:59;6.95;;;5.20;;
24557;SDS011;12726;49.148;8.582;2024-03-02T10:12:59;6.53;;;4.53;;
24557;SDS011;12726;49.148;8.582;2024-03-02T10:15:49;5.95;;;4.00;;
24557;SDS011;12726;49.148;8.582;2024-03-02T10:18:35;5.50;;;3.78;;
24557;SDS011;12726;49.148;8.582;2024-03-02T10:21:20;5.55;;;4.25;;
24557;SDS011;12726;49.148;8.582;2024-03-02T10:24:09;5.80;;;4.00;;
24557;SDS011;12726;49.148;8.582;2024-03-02T10:26:54;5.55;;;4.03;;
24557;SDS011;12726;49.148;8.582;2024-03-02T10:29:40;7.63;;;3.58;;
24557;SDS011;12726;49.148;8.582;2024-03-02T10:32:26;5.25;;;3.63;;
24557;SDS011;12726;49.148;8.582;2024-03-02T10:35:11;7.30;;;3.58;;
24557;SDS011;12726;49.148;8.582;2024-03-02T10:37:59;4.85;;;3.58;;
24557;SDS011;12726;49.148;8.582;2024-03-02T10:40:47;3.83;;;3.03;;
24557;SDS011;12726;49.148;8.582;2024-03-02T10:43:33;3.67;;;3.00;;
24557;SDS011;12726;49.148;8.582;2024-03-02T10:46:18;4.82;;;3.20;;
24557;SDS011;12726;49.148;8.582;2024-03-02T10:49:05;5.57;;;3.30;;
24557;SDS011;12726;49.148;8.582;2024-03-02T10:51:50;6.68;;;2.97;;
24557;SDS011;12726;49.148;8.582;2024-03-02T10:54:36;4.68;;;2.83;;
24557;SDS011;12726;49.148;8.582;2024-03-02T10:57:25;4.65;;;2.53;;
24557;SDS011;12726;49.148;8.582;2024-03-02T11:00:13;3.58;;;2.67;;
24557;SDS011;12726;49.148;8.582;2024-03-02T11:03:04;3.53;;;2.63;;
24557;SDS011;12726;49.148;8.582;2024-03-02T11:05:52;3.70;;;2.55;;
24557;SDS011;12726;49.148;8.582;2024-03-02T11:08:38;3.33;;;2.38;;
24557;SDS011;12726;49.148;8.582;2024-03-02T11:11:27;4.82;;;3.28;;
24557;SDS011;12726;49.148;8.582;2024-03-02T11:14:20;3.87;;;2.67;;
24557;SDS011;12726;49.148;8.582;2024-03-02T11:17:09;3.92;;;2.63;;
24557;SDS011;12726;49.148;8.582;2024-03-02T11:19:55;3.17;;;2.88;;
24557;SDS011;12726;49.148;8.582;2024-03-02T11:22:42;3.55;;;2.40;;
24557;SDS011;12726;49.148;8.582;2024-03-02T11:25:28;3.05;;;2.50;;
24557;SDS011;12726;49.148;8.582;2024-03-02T11:28:16;2.88;;;2.33;;
24557;SDS011;12726;49.148;8.582;2024-03-02T11:31:21;2.75;;;2.00;;
24557;SDS011;12726;49.148;8.582;2024-03-02T11:34:16;2.20;;;1.80;;
24557;SDS011;12726;49.148;8.582;2024-03-02T11:37:03;3.42;;;2.30;;
24557;SDS011;12726;49.148;8.582;2024-03-02T11:39:49;3.38;;;2.03;;
24557;SDS011;12726;49.148;8.582;2024-03-02T11:42:35;2.67;;;1.90;;
24557;SDS011;12726;49.148;8.582;2024-03-02T11:45:22;2.42;;;2.00;;
24557;SDS011;12726;49.148;8.582;2024-03-02T11:48:10;2.85;;;2.00;;
24557;SDS011;12726;49.148;8.582;2024-03-02T11:50:58;3.17;;;2.00;;
24557;SDS011;12726;49.148;8.582;2024-03-02T11:53:44;2.22;;;2.03;;
24557;SDS011;12726;49.148;8.582;2024-03-02T11:56:32;7.35;;;2.30;;
24557;SDS011;12726;49.148;8.582;2024-03-02T11:59:18;2.25;;;1.65;;
24557;SDS011;12726;49.148;8.582;2024-03-02T12:02:04;4.53;;;2.05;;
24557;SDS011;12726;49.148;8.582;2024-03-02T12:04:51;3.17;;;1.67;;
24557;SDS011;12726;49.148;8.582;2024-03-02T12:07:37;2.33;;;1.85;;
24557;SDS011;12726;49.148;8.582;2024-03-02T12:10:23;2.72;;;2.08;;
24557;SDS011;12726;49.148;8.582;2024-03-02T12:13:09;2.28;;;1.50;;
24557;SDS011;12726;49.148;8.582;2024-03-02T12:15:55;2.13;;;1.75;;
24557;SDS011;12726;49.148;8.582;2024-03-02T12:18:41;4.40;;;1.80;;
24557;SDS011;12726;49.148;8.582;2024-03-02T12:21:28;3.60;;;2.30;;
24557;SDS011;12726;49.148;8.582;2024-03-02T12:24:14;2.40;;;2.20;;
24557;SDS011;12726;49.148;8.582;2024-03-02T12:26:59;3.05;;;2.05;;
24557;SDS011;12726;49.148;8.582;2024-03-02T12:29:45;2.78;;;2.03;;
24557;SDS011;12726;49.148;8.582;2024-03-02T12:32:30;2.90;;;1.88;;
24557;SDS011;12726;49.148;8.582;2024-03-02T12:35:16;4.18;;;1.77;;
24557;SDS011;12726;49.148;8.582;2024-03-02T12:38:04;3.03;;;2.03;;
24557;SDS011;12726;49.148;8.582;2024-03-02T12:40:49;3.17;;;1.75;;
24557;SDS011;12726;49.148;8.582;2024-03-02T12:43:34;1.67;;;1.58;;
24557;SDS011;12726;49.148;8.582;2024-03-02T12:46:20;2.78;;;1.80;;
24557;SDS011;12726;49.148;8.582;2024-03-02T12:49:07;2.92;;;2.33;;
24557;SDS011;12726;49.148;8.582;2024-03-02T12:51:54;3.55;;;1.92;;
24557;SDS011;12726;49.148;8.582;2024-03-02T12:54:42;1.80;;;1.55;;
24557;SDS011;12726;49.148;8.582;2024-03-02T12:57:28;2.65;;;1.95;;
24557;SDS011;12726;49.148;8.582;2024-03-02T13:00:14;2.80;;;2.13;;
24557;SDS011;12726;49.148;8.582;2024-03-02T13:03:02;5.72;;;2.45;;
24557;SDS011;12726;49.148;8.582;2024-03-02T13:05:48;3.38;;;1.95;;
24557;SDS011;12726;49.148;8.582;2024-03-02T13:08:34;3.50;;;2.00;;
24557;SDS011;12726;49.148;8.582;2024-03-02T13:11:22;3.63;;;2.30;;
24557;SDS011;12726;49.148;8.582;2024-03-02T13:14:08;2.30;;;1.50;;
24557;SDS011;12726;49.148;8.582;2024-03-02T13:16:55;2.30;;;1.42;;
24557;SDS011;12726;49.148;8.582;2024-03-02T13:19:50;2.25;;;1.58;;
24557;SDS011;12726;49.148;8.582;2024-03-02T13:25:22;1.85;;;1.35;;
24557;SDS011;12726;49.148;8.582;2024-03-02T13:28:08;2.42;;;1.13;;
24557;SDS011;12726;49.148;8.582;2024-03-02T13:30:54;2.50;;;1.40;;
24557;SDS011;12726;49.148;8.582;2024-03-02T13:33:39;1.33;;;1.15;;
24557;SDS011;12726;49.148;8.582;2024-03-02T13:36:24;1.52;;;1.02;;
24557;SDS011;12726;49.148;8.582;2024-03-02T13:39:10;4.50;;;1.20;;
24557;SDS011;12726;49.148;8.582;2024-03-02T13:41:59;1.55;;;1.08;;
24557;SDS011;12726;49.148;8.582;2024-03-02T13:44:51;3.35;;;1.08;;
24557;SDS011;12726;49.148;8.582;2024-03-02T13:47:36;2.25;;;0.90;;
24557;SDS011;12726;49.148;8.582;2024-03-02T13:50:24;1.48;;;0.90;;
24557;SDS011;12726;49.148;8.582;2024-03-02T13:53:09;1.23;;;0.98;;
24557;SDS011;12726;49.148;8.582;2024-03-02T13:55:55;1.48;;;1.00;;
24557;SDS011;12726;49.148;8.582;2024-03-02T13:58:40;1.98;;;1.00;;
24557;SDS011;12726;49.148;8.582;2024-03-02T14:01:28;1.52;;;0.93;;
24557;SDS011;12726;49.148;8.582;2024-03-02T14:04:14;1.10;;;0.80;;
24557;SDS011;12726;49.148;8.582;2024-03-02T14:06:59;0.70;;;0.68;;
24557;SDS011;12726;49.148;8.582;2024-03-02T14:09:45;1.30;;;1.00;;
24557;SDS011;12726;49.148;8.582;2024-03-02T14:12:30;1.67;;;0.80;;
24557;SDS011;12726;49.148;8.582;2024-03-02T14:15:16;2.47;;;0.73;;
24557;SDS011;12726;49.148;8.582;2024-03-02T14:18:06;0.90;;;0.70;;
24557;SDS011;12726;49.148;8.582;2024-03-02T14:20:53;2.00;;;1.02;;
24557;SDS011;12726;49.148;8.582;2024-03-02T14:23:39;5.75;;;1.00;;
24557;SDS011;12726;49.148;8.582;2024-03-02T14:26:24;1.38;;;0.80;;
24557;SDS011;12726;49.148;8.582;2024-03-02T14:29:09;3.10;;;1.00;;
24557;SDS011;12726;49.148;8.582;2024-03-02T14:31:55;1.70;;;1.00;;
24557;SDS011;12726;49.148;8.582;2024-03-02T14:34:41;1.92;;;1.00;;
24557;SDS011;12726;49.148;8.582;2024-03-02T14:37:27;0.88;;;0.65;;
24557;SDS011;12726;49.148;8.582;2024-03-02T14:40:13;1.58;;;1.00;;
24557;SDS011;12726;49.148;8.582;2024-03-02T14:42:58;1.35;;;1.00;;
24557;SDS011;12726;49.148;8.582;2024-03-02T14:45:44;1.13;;;1.00;;
24557;SDS011;12726;49.148;8.582;2024-03-02T14:48:29;1.05;;;0.82;;
24557;SDS011;12726;49.148;8.582;2024-03-02T14:51:20;1.13;;;0.63;;
24557;SDS011;12726;49.148;8.582;2024-03-02T14:54:06;1.67;;;1.20;;
24557;SDS011;12726;49.148;8.582;2024-03-02T14:56:51;1.00;;;0.80;;
24557;SDS011;12726;49.148;8.582;2024-03-02T14:59:36;2.88;;;1.00;;
24557;SDS011;12726;49.148;8.582;2024-03-02T15:02:22;0.90;;;0.70;;
24557;SDS011;12726;49.148;8.582;2024-03-02T15:05:07;3.10;;;1.13;;
24557;SDS011;12726;49.148;8.582;2024-03-02T15:07:54;0.95;;;0.88;;
24557;SDS011;12726;49.148;8.582;2024-03-02T15:10:42;1.08;;;0.80;;
24557;SDS011;12726;49.148;8.582;2024-03-02T15:13:28;2.58;;;1.02;;
24557;SDS011;12726;49.148;8.582;2024-03-02T15:16:13;1.35;;;0.85;;
24557;SDS011;12726;49.148;8.582;2024-03-02T15:18:59;2.92;;;0.95;;
24557;SDS011;12726;49.148;8.582;2024-03-02T15:21:44;1.73;;;1.10;;
24557;SDS011;12726;49.148;8.582;2024-03-02T15:24:31;2.15;;;0.77;;
24557;SDS011;12726;49.148;8.582;2024-03-02T15:27:16;1.30;;;1.00;;
24557;SDS011;12726;49.148;8.582;2024-03-02T15:30:02;1.90;;;0.98;;
24557;SDS011;12726;49.148;8.582;2024-03-02T15:32:48;2.17;;;1.08;;
24557;SDS011;12726;49.148;8.582;2024-03-02T15:35:33;2.70;;;1.00;;
24557;SDS011;12726;49.148;8.582;2024-03-02T15:38:18;2.40;;;1.00;;
24557;SDS011;12726;49.148;8.582;2024-03-02T15:41:05;2.28;;;0.85;;
24557;SDS011;12726;49.148;8.582;2024-03-02T15:43:50;1.65;;;0.95;;
24557;SDS011;12726;49.148;8.582;2024-03-02T15:46:36;3.20;;;1.00;;
24557;SDS011;12726;49.148;8.582;2024-03-02T15:49:21;1.95;;;1.08;;
24557;SDS011;12726;49.148;8.582;2024-03-02T15:52:07;1.38;;;1.00;;
24557;SDS011;12726;49.148;8.582;2024-03-02T15:54:52;1.52;;;1.10;;
24557;SDS011;12726;49.148;8.582;2024-03-02T15:57:39;7.53;;;5.65;;
24557;SDS011;12726;49.148;8.582;2024-03-02T16:00:24;5.28;;;4.78;;
24557;SDS011;12726;49.148;8.582;2024-03-02T16:03:09;3.00;;;2.30;;
24557;SDS011;12726;49.148;8.582;2024-03-02T16:05:55;2.55;;;2.33;;
24557;SDS011;12726;49.148;8.582;2024-03-02T16:08:40;2.97;;;2.10;;
24557;SDS011;12726;49.148;8.582;2024-03-02T16:11:26;3.95;;;2.40;;
24557;SDS011;12726;49.148;8.582;2024-03-02T16:14:14;5.47;;;2.58;;
24557;SDS011;12726;49.148;8.582;2024-03-02T16:17:00;3.08;;;2.05;;
24557;SDS011;12726;49.148;8.582;2024-03-02T16:19:45;4.30;;;2.08;;
24557;SDS011;12726;49.148;8.582;2024-03-02T16:22:31;9.70;;;4.82;;
24557;SDS011;12726;49.148;8.582;2024-03-02T16:25:16;5.53;;;3.72;;
24557;SDS011;12726;49.148;8.582;2024-03-02T16:28:04;4.25;;;2.95;;
24557;SDS011;12726;49.148;8.582;2024-03-02T16:30:51;3.97;;;2.53;;
24557;SDS011;12726;49.148;8.582;2024-03-02T16:33:37;4.90;;;2.85;;
24557;SDS011;12726;49.148;8.582;2024-03-02T16:36:23;4.82;;;2.83;;
24557;SDS011;12726;49.148;8.582;2024-03-02T16:39:11;4.13;;;2.78;;